sensor_id;sensor_type;location;lat;lon;timestamp;temperature;humidity
52509;DHT22;38420;53.150;6.370;2022-07-29T00:01:47;15.20;99.90
52509;DHT22;38420;53.150;6.370;2022-07-29T00:04:13;15.90;99.90
52509;DHT22;38420;53.150;6.370;2022-07-29T00:06:39;15.20;99.90
52509;DHT22;38420;53.150;6.370;2022-07-29T00:09:05;15.20;99.90
52509;DHT22;38420;53.150;6.370;2022-07-29T00:11:30;15.20;99.90
52509;DHT22;38420;53.150;6.370;2022-07-29T00:13:56;15.30;99.90
52509;DHT22;38420;53.150;6.370;2022-07-29T00:16:22;15.30;99.90
52509;DHT22;38420;53.150;6.370;2022-07-29T00:18:48;15.40;99.90
52509;DHT22;38420;53.150;6.370;2022-07-29T00:21:13;16.20;99.90
52509;DHT22;38420;53.150;6.370;2022-07-29T00:23:39;15.90;99.90
52509;DHT22;38420;53.150;6.370;2022-07-29T00:26:05;15.90;99.90
52509;DHT22;38420;53.150;6.370;2022-07-29T00:28:30;15.60;99.90
52509;DHT22;38420;53.150;6.370;2022-07-29T00:30:56;15.70;99.90
52509;DHT22;38420;53.150;6.370;2022-07-29T00:33:21;15.40;99.90
52509;DHT22;38420;53.150;6.370;2022-07-29T00:35:48;15.70;99.90
52509;DHT22;38420;53.150;6.370;2022-07-29T00:38:15;15.20;99.90
52509;DHT22;38420;53.150;6.370;2022-07-29T00:40:41;15.30;99.90
52509;DHT22;38420;53.150;6.370;2022-07-29T00:43:07;15.20;99.90
52509;DHT22;38420;53.150;6.370;2022-07-29T00:45:33;15.70;99.90
52509;DHT22;38420;53.150;6.370;2022-07-29T00:47:58;15.60;99.90
52509;DHT22;38420;53.150;6.370;2022-07-29T00:50:24;15.40;99.90
52509;DHT22;38420;53.150;6.370;2022-07-29T00:52:49;15.20;99.90
52509;DHT22;38420;53.150;6.370;2022-07-29T00:55:15;15.20;99.90
52509;DHT22;38420;53.150;6.370;2022-07-29T00:57:41;15.70;99.90
52509;DHT22;38420;53.150;6.370;2022-07-29T01:00:09;15.20;99.90
52509;DHT22;38420;53.150;6.370;2022-07-29T01:02:35;15.20;99.90
52509;DHT22;38420;53.150;6.370;2022-07-29T01:05:01;15.20;99.90
52509;DHT22;38420;53.150;6.370;2022-07-29T01:07:26;15.20;99.90
52509;DHT22;38420;53.150;6.370;2022-07-29T01:09:53;15.20;99.90
52509;DHT22;38420;53.150;6.370;2022-07-29T01:12:20;15.20;99.90
52509;DHT22;38420;53.150;6.370;2022-07-29T01:14:47;15.20;99.90
52509;DHT22;38420;53.150;6.370;2022-07-29T01:19:49;15.20;99.90
52509;DHT22;38420;53.150;6.370;2022-07-29T01:22:19;15.20;99.90
52509;DHT22;38420;53.150;6.370;2022-07-29T01:27:32;15.20;99.90
52509;DHT22;38420;53.150;6.370;2022-07-29T01:30:02;15.20;99.90
52509;DHT22;38420;53.150;6.370;2022-07-29T01:32:29;15.10;99.90
52509;DHT22;38420;53.150;6.370;2022-07-29T01:35:13;15.20;99.90
52509;DHT22;38420;53.150;6.370;2022-07-29T01:40:20;15.10;99.90
52509;DHT22;38420;53.150;6.370;2022-07-29T01:42:48;15.10;99.90
52509;DHT22;38420;53.150;6.370;2022-07-29T01:45:17;15.10;99.90
52509;DHT22;38420;53.150;6.370;2022-07-29T01:50:16;15.00;99.90
52509;DHT22;38420;53.150;6.370;2022-07-29T01:52:52;15.20;99.90
52509;DHT22;38420;53.150;6.370;2022-07-29T01:55:20;15.00;99.90
52509;DHT22;38420;53.150;6.370;2022-07-29T01:57:47;14.90;99.90
52509;DHT22;38420;53.150;6.370;2022-07-29T02:00:13;15.00;99.90
52509;DHT22;38420;53.150;6.370;2022-07-29T02:02:40;14.90;99.90
52509;DHT22;38420;53.150;6.370;2022-07-29T02:05:06;15.10;99.90
52509;DHT22;38420;53.150;6.370;2022-07-29T02:07:33;14.90;99.90
52509;DHT22;38420;53.150;6.370;2022-07-29T02:10:00;14.90;99.90
52509;DHT22;38420;53.150;6.370;2022-07-29T02:12:27;15.70;99.90
52509;DHT22;38420;53.150;6.370;2022-07-29T02:14:54;15.10;99.90
52509;DHT22;38420;53.150;6.370;2022-07-29T02:17:27;15.30;99.90
52509;DHT22;38420;53.150;6.370;2022-07-29T02:19:56;14.90;99.90
52509;DHT22;38420;53.150;6.370;2022-07-29T02:22:22;14.90;99.90
52509;DHT22;38420;53.150;6.370;2022-07-29T02:24:48;15.40;99.90
52509;DHT22;38420;53.150;6.370;2022-07-29T02:27:15;15.40;99.90
52509;DHT22;38420;53.150;6.370;2022-07-29T02:29:42;14.90;99.90
52509;DHT22;38420;53.150;6.370;2022-07-29T02:32:08;15.40;99.90
52509;DHT22;38420;53.150;6.370;2022-07-29T02:34:37;15.10;99.90
52509;DHT22;38420;53.150;6.370;2022-07-29T02:37:03;14.90;99.90
52509;DHT22;38420;53.150;6.370;2022-07-29T02:39:29;14.90;99.90
52509;DHT22;38420;53.150;6.370;2022-07-29T02:41:57;15.70;99.90
52509;DHT22;38420;53.150;6.370;2022-07-29T02:44:24;15.30;99.90
52509;DHT22;38420;53.150;6.370;2022-07-29T02:46:52;15.10;99.90
52509;DHT22;38420;53.150;6.370;2022-07-29T02:51:49;15.00;99.90
52509;DHT22;38420;53.150;6.370;2022-07-29T02:54:20;15.40;99.90
52509;DHT22;38420;53.150;6.370;2022-07-29T02:56:46;15.00;99.90
52509;DHT22;38420;53.150;6.370;2022-07-29T02:59:13;15.50;99.90
52509;DHT22;38420;53.150;6.370;2022-07-29T03:01:42;15.20;99.90
52509;DHT22;38420;53.150;6.370;2022-07-29T03:04:08;15.00;99.90
52509;DHT22;38420;53.150;6.370;2022-07-29T03:06:34;15.40;99.90
52509;DHT22;38420;53.150;6.370;2022-07-29T03:09:00;14.90;99.90
52509;DHT22;38420;53.150;6.370;2022-07-29T03:11:26;15.00;99.90
52509;DHT22;38420;53.150;6.370;2022-07-29T03:13:52;15.20;99.90
52509;DHT22;38420;53.150;6.370;2022-07-29T03:16:19;15.20;99.90
52509;DHT22;38420;53.150;6.370;2022-07-29T03:18:45;15.10;99.90
52509;DHT22;38420;53.150;6.370;2022-07-29T03:21:10;15.00;99.90
52509;DHT22;38420;53.150;6.370;2022-07-29T03:23:36;15.30;99.90
52509;DHT22;38420;53.150;6.370;2022-07-29T03:26:01;14.90;99.90
52509;DHT22;38420;53.150;6.370;2022-07-29T03:28:27;15.30;99.90
52509;DHT22;38420;53.150;6.370;2022-07-29T03:30:53;15.00;99.90
52509;DHT22;38420;53.150;6.370;2022-07-29T03:33:18;14.90;99.90
52509;DHT22;38420;53.150;6.370;2022-07-29T03:35:44;15.00;99.90
52509;DHT22;38420;53.150;6.370;2022-07-29T03:38:10;15.00;99.90
52509;DHT22;38420;53.150;6.370;2022-07-29T03:40:37;15.30;99.90
52509;DHT22;38420;53.150;6.370;2022-07-29T03:43:03;15.50;99.90
52509;DHT22;38420;53.150;6.370;2022-07-29T03:45:31;14.90;99.90
52509;DHT22;38420;53.150;6.370;2022-07-29T03:47:58;14.90;99.90
52509;DHT22;38420;53.150;6.370;2022-07-29T03:50:24;14.90;99.90
52509;DHT22;38420;53.150;6.370;2022-07-29T03:52:50;14.90;99.90
52509;DHT22;38420;53.150;6.370;2022-07-29T03:55:16;14.90;99.90
52509;DHT22;38420;53.150;6.370;2022-07-29T03:57:42;14.90;99.90
52509;DHT22;38420;53.150;6.370;2022-07-29T04:00:08;15.00;99.90
52509;DHT22;38420;53.150;6.370;2022-07-29T04:02:33;14.90;99.90
52509;DHT22;38420;53.150;6.370;2022-07-29T04:04:59;14.90;99.90
52509;DHT22;38420;53.150;6.370;2022-07-29T04:07:25;15.00;99.90
52509;DHT22;38420;53.150;6.370;2022-07-29T04:09:50;14.90;99.90
52509;DHT22;38420;53.150;6.370;2022-07-29T04:12:16;14.90;99.90
52509;DHT22;38420;53.150;6.370;2022-07-29T04:14:41;15.30;99.90
52509;DHT22;38420;53.150;6.370;2022-07-29T04:17:07;15.30;99.90
52509;DHT22;38420;53.150;6.370;2022-07-29T04:19:33;14.90;99.90
52509;DHT22;38420;53.150;6.370;2022-07-29T04:21:58;15.20;99.90
52509;DHT22;38420;53.150;6.370;2022-07-29T04:24:24;14.90;99.90
52509;DHT22;38420;53.150;6.370;2022-07-29T04:26:50;14.90;99.90
52509;DHT22;38420;53.150;6.370;2022-07-29T04:29:15;15.50;99.90
52509;DHT22;38420;53.150;6.370;2022-07-29T04:31:41;15.40;99.90
52509;DHT22;38420;53.150;6.370;2022-07-29T04:34:07;14.90;99.90
52509;DHT22;38420;53.150;6.370;2022-07-29T04:36:34;15.40;99.90
52509;DHT22;38420;53.150;6.370;2022-07-29T04:38:59;15.50;99.90
52509;DHT22;38420;53.150;6.370;2022-07-29T04:41:26;15.90;99.90
52509;DHT22;38420;53.150;6.370;2022-07-29T04:43:52;14.90;99.90
52509;DHT22;38420;53.150;6.370;2022-07-29T04:46:17;15.30;99.90
52509;DHT22;38420;53.150;6.370;2022-07-29T04:48:45;15.40;99.90
52509;DHT22;38420;53.150;6.370;2022-07-29T04:51:10;15.00;99.90
52509;DHT22;38420;53.150;6.370;2022-07-29T04:53:36;15.00;99.90
52509;DHT22;38420;53.150;6.370;2022-07-29T04:56:01;14.90;99.90
52509;DHT22;38420;53.150;6.370;2022-07-29T04:58:27;15.00;99.90
52509;DHT22;38420;53.150;6.370;2022-07-29T05:00:52;15.50;99.90
52509;DHT22;38420;53.150;6.370;2022-07-29T05:03:18;15.00;99.90
52509;DHT22;38420;53.150;6.370;2022-07-29T05:05:43;15.40;99.90
52509;DHT22;38420;53.150;6.370;2022-07-29T05:08:09;15.50;99.90
52509;DHT22;38420;53.150;6.370;2022-07-29T05:10:35;15.10;99.90
52509;DHT22;38420;53.150;6.370;2022-07-29T05:13:06;15.10;99.90
52509;DHT22;38420;53.150;6.370;2022-07-29T05:15:32;15.10;99.90
52509;DHT22;38420;53.150;6.370;2022-07-29T05:17:58;15.10;99.90
52509;DHT22;38420;53.150;6.370;2022-07-29T05:20:24;15.20;99.90
52509;DHT22;38420;53.150;6.370;2022-07-29T05:22:54;15.40;99.90
52509;DHT22;38420;53.150;6.370;2022-07-29T05:25:19;15.20;99.90
52509;DHT22;38420;53.150;6.370;2022-07-29T05:27:45;15.40;99.90
52509;DHT22;38420;53.150;6.370;2022-07-29T05:30:10;15.30;99.90
52509;DHT22;38420;53.150;6.370;2022-07-29T05:32:36;15.30;99.90
52509;DHT22;38420;53.150;6.370;2022-07-29T05:35:02;15.30;99.90
52509;DHT22;38420;53.150;6.370;2022-07-29T05:37:27;15.30;99.90
52509;DHT22;38420;53.150;6.370;2022-07-29T05:39:53;15.90;99.90
52509;DHT22;38420;53.150;6.370;2022-07-29T05:42:18;15.40;99.90
52509;DHT22;38420;53.150;6.370;2022-07-29T05:44:44;15.40;99.90
52509;DHT22;38420;53.150;6.370;2022-07-29T05:47:09;15.50;99.90
52509;DHT22;38420;53.150;6.370;2022-07-29T05:49:35;16.30;99.90
52509;DHT22;38420;53.150;6.370;2022-07-29T05:52:00;15.90;99.90
52509;DHT22;38420;53.150;6.370;2022-07-29T05:54:26;15.50;99.90
52509;DHT22;38420;53.150;6.370;2022-07-29T05:56:52;15.50;99.90
52509;DHT22;38420;53.150;6.370;2022-07-29T05:59:17;15.60;99.90
52509;DHT22;38420;53.150;6.370;2022-07-29T06:01:43;15.90;99.90
52509;DHT22;38420;53.150;6.370;2022-07-29T06:04:09;15.70;99.90
52509;DHT22;38420;53.150;6.370;2022-07-29T06:06:34;15.70;99.90
52509;DHT22;38420;53.150;6.370;2022-07-29T06:09:00;16.50;99.90
52509;DHT22;38420;53.150;6.370;2022-07-29T06:11:26;15.80;99.90
52509;DHT22;38420;53.150;6.370;2022-07-29T06:13:52;15.80;99.90
52509;DHT22;38420;53.150;6.370;2022-07-29T06:16:18;16.20;99.90
52509;DHT22;38420;53.150;6.370;2022-07-29T06:18:43;16.10;99.90
52509;DHT22;38420;53.150;6.370;2022-07-29T06:21:09;16.00;99.90
52509;DHT22;38420;53.150;6.370;2022-07-29T06:23:36;16.10;99.90
52509;DHT22;38420;53.150;6.370;2022-07-29T06:26:02;16.20;99.90
52509;DHT22;38420;53.150;6.370;2022-07-29T06:28:27;16.20;99.90
52509;DHT22;38420;53.150;6.370;2022-07-29T06:30:53;16.30;99.90
52509;DHT22;38420;53.150;6.370;2022-07-29T06:33:19;16.50;99.90
52509;DHT22;38420;53.150;6.370;2022-07-29T06:35:44;16.40;99.90
52509;DHT22;38420;53.150;6.370;2022-07-29T06:38:12;16.50;99.90
52509;DHT22;38420;53.150;6.370;2022-07-29T06:40:40;16.70;99.90
52509;DHT22;38420;53.150;6.370;2022-07-29T06:43:25;17.00;99.90
52509;DHT22;38420;53.150;6.370;2022-07-29T06:45:52;16.60;99.90
52509;DHT22;38420;53.150;6.370;2022-07-29T06:48:17;16.60;99.90
52509;DHT22;38420;53.150;6.370;2022-07-29T06:50:43;16.70;99.90
52509;DHT22;38420;53.150;6.370;2022-07-29T06:53:08;17.00;99.90
52509;DHT22;38420;53.150;6.370;2022-07-29T06:55:34;16.70;99.90
52509;DHT22;38420;53.150;6.370;2022-07-29T06:57:59;16.80;99.90
52509;DHT22;38420;53.150;6.370;2022-07-29T07:00:25;16.80;99.90
52509;DHT22;38420;53.150;6.370;2022-07-29T07:02:50;16.80;99.90
52509;DHT22;38420;53.150;6.370;2022-07-29T07:05:16;16.90;99.90
52509;DHT22;38420;53.150;6.370;2022-07-29T07:07:41;16.90;99.90
52509;DHT22;38420;53.150;6.370;2022-07-29T07:10:07;17.00;99.90
52509;DHT22;38420;53.150;6.370;2022-07-29T07:12:33;17.00;99.90
52509;DHT22;38420;53.150;6.370;2022-07-29T07:14:58;17.10;99.90
52509;DHT22;38420;53.150;6.370;2022-07-29T07:17:24;17.20;99.90
52509;DHT22;38420;53.150;6.370;2022-07-29T07:19:50;17.20;99.90
52509;DHT22;38420;53.150;6.370;2022-07-29T07:22:15;17.40;99.90
52509;DHT22;38420;53.150;6.370;2022-07-29T07:24:41;17.50;99.90
52509;DHT22;38420;53.150;6.370;2022-07-29T07:27:06;17.50;99.90
52509;DHT22;38420;53.150;6.370;2022-07-29T07:29:32;18.10;99.90
52509;DHT22;38420;53.150;6.370;2022-07-29T07:31:58;18.30;99.90
52509;DHT22;38420;53.150;6.370;2022-07-29T07:34:23;17.80;99.90
52509;DHT22;38420;53.150;6.370;2022-07-29T07:36:49;17.80;99.90
52509;DHT22;38420;53.150;6.370;2022-07-29T07:39:14;18.00;99.90
52509;DHT22;38420;53.150;6.370;2022-07-29T07:41:40;17.80;99.90
52509;DHT22;38420;53.150;6.370;2022-07-29T07:44:06;17.80;99.90
52509;DHT22;38420;53.150;6.370;2022-07-29T07:46:31;17.90;99.90
52509;DHT22;38420;53.150;6.370;2022-07-29T07:48:57;17.90;99.90
52509;DHT22;38420;53.150;6.370;2022-07-29T07:51:22;17.90;99.90
52509;DHT22;38420;53.150;6.370;2022-07-29T07:53:48;17.90;99.90
52509;DHT22;38420;53.150;6.370;2022-07-29T07:56:15;17.80;99.90
52509;DHT22;38420;53.150;6.370;2022-07-29T07:58:41;17.80;99.90
52509;DHT22;38420;53.150;6.370;2022-07-29T08:01:07;17.80;99.90
52509;DHT22;38420;53.150;6.370;2022-07-29T08:03:33;17.70;99.90
52509;DHT22;38420;53.150;6.370;2022-07-29T08:05:58;17.70;99.90
52509;DHT22;38420;53.150;6.370;2022-07-29T08:08:24;17.70;99.90
52509;DHT22;38420;53.150;6.370;2022-07-29T08:10:49;17.70;99.90
52509;DHT22;38420;53.150;6.370;2022-07-29T08:13:19;17.70;99.90
52509;DHT22;38420;53.150;6.370;2022-07-29T08:15:45;17.70;99.90
52509;DHT22;38420;53.150;6.370;2022-07-29T08:18:13;17.70;99.90
52509;DHT22;38420;53.150;6.370;2022-07-29T08:20:39;17.70;99.90
52509;DHT22;38420;53.150;6.370;2022-07-29T08:23:05;17.70;99.90
52509;DHT22;38420;53.150;6.370;2022-07-29T08:25:32;17.70;99.90
52509;DHT22;38420;53.150;6.370;2022-07-29T08:27:58;17.70;99.90
52509;DHT22;38420;53.150;6.370;2022-07-29T08:30:24;17.90;99.90
52509;DHT22;38420;53.150;6.370;2022-07-29T08:32:49;17.70;99.90
52509;DHT22;38420;53.150;6.370;2022-07-29T08:35:21;17.70;99.90
52509;DHT22;38420;53.150;6.370;2022-07-29T08:37:47;17.70;99.90
52509;DHT22;38420;53.150;6.370;2022-07-29T08:40:12;17.70;99.90
52509;DHT22;38420;53.150;6.370;2022-07-29T08:42:39;17.70;99.90
52509;DHT22;38420;53.150;6.370;2022-07-29T08:45:05;17.80;99.90
52509;DHT22;38420;53.150;6.370;2022-07-29T08:47:30;17.80;99.90
52509;DHT22;38420;53.150;6.370;2022-07-29T08:49:56;17.80;99.90
52509;DHT22;38420;53.150;6.370;2022-07-29T08:52:23;17.90;99.90
52509;DHT22;38420;53.150;6.370;2022-07-29T08:54:50;18.00;99.90
52509;DHT22;38420;53.150;6.370;2022-07-29T08:57:17;18.10;99.90
52509;DHT22;38420;53.150;6.370;2022-07-29T08:59:43;18.10;99.90
52509;DHT22;38420;53.150;6.370;2022-07-29T09:02:12;18.10;99.90
52509;DHT22;38420;53.150;6.370;2022-07-29T09:04:40;18.40;99.90
52509;DHT22;38420;53.150;6.370;2022-07-29T09:07:06;18.30;99.90
52509;DHT22;38420;53.150;6.370;2022-07-29T09:09:33;18.30;99.90
52509;DHT22;38420;53.150;6.370;2022-07-29T09:11:59;18.40;99.90
52509;DHT22;38420;53.150;6.370;2022-07-29T09:14:25;18.50;99.90
52509;DHT22;38420;53.150;6.370;2022-07-29T09:16:54;18.60;99.90
52509;DHT22;38420;53.150;6.370;2022-07-29T09:19:27;18.70;99.90
52509;DHT22;38420;53.150;6.370;2022-07-29T09:21:54;18.80;99.90
52509;DHT22;38420;53.150;6.370;2022-07-29T09:24:42;18.90;99.90
52509;DHT22;38420;53.150;6.370;2022-07-29T09:27:29;19.00;99.90
52509;DHT22;38420;53.150;6.370;2022-07-29T09:30:02;19.10;99.90
52509;DHT22;38420;53.150;6.370;2022-07-29T09:32:28;19.30;99.90
52509;DHT22;38420;53.150;6.370;2022-07-29T09:35:13;19.30;99.90
52509;DHT22;38420;53.150;6.370;2022-07-29T09:37:39;19.30;99.90
52509;DHT22;38420;53.150;6.370;2022-07-29T09:40:15;19.30;99.90
52509;DHT22;38420;53.150;6.370;2022-07-29T09:42:41;19.20;99.90
52509;DHT22;38420;53.150;6.370;2022-07-29T09:45:06;19.10;99.90
52509;DHT22;38420;53.150;6.370;2022-07-29T09:47:40;19.10;99.90
52509;DHT22;38420;53.150;6.370;2022-07-29T09:50:05;19.20;99.90
52509;DHT22;38420;53.150;6.370;2022-07-29T09:52:31;19.00;99.90
52509;DHT22;38420;53.150;6.370;2022-07-29T09:55:06;19.00;99.90
52509;DHT22;38420;53.150;6.370;2022-07-29T09:57:32;19.00;99.90
52509;DHT22;38420;53.150;6.370;2022-07-29T09:59:59;19.00;99.90
52509;DHT22;38420;53.150;6.370;2022-07-29T10:02:31;19.00;99.90
52509;DHT22;38420;53.150;6.370;2022-07-29T10:04:57;19.10;99.90
52509;DHT22;38420;53.150;6.370;2022-07-29T10:07:23;19.10;99.90
52509;DHT22;38420;53.150;6.370;2022-07-29T10:09:51;19.10;99.90
52509;DHT22;38420;53.150;6.370;2022-07-29T10:12:17;19.20;99.90
52509;DHT22;38420;53.150;6.370;2022-07-29T10:14:42;19.10;99.90
52509;DHT22;38420;53.150;6.370;2022-07-29T10:17:09;19.20;99.90
52509;DHT22;38420;53.150;6.370;2022-07-29T10:19:35;19.30;99.90
52509;DHT22;38420;53.150;6.370;2022-07-29T10:22:03;19.40;99.90
52509;DHT22;38420;53.150;6.370;2022-07-29T10:24:29;19.50;99.90
52509;DHT22;38420;53.150;6.370;2022-07-29T10:26:56;19.50;99.90
52509;DHT22;38420;53.150;6.370;2022-07-29T10:29:22;19.50;99.90
52509;DHT22;38420;53.150;6.370;2022-07-29T10:31:50;19.50;99.90
52509;DHT22;38420;53.150;6.370;2022-07-29T10:34:23;19.50;99.90
52509;DHT22;38420;53.150;6.370;2022-07-29T10:39:33;19.50;99.90
52509;DHT22;38420;53.150;6.370;2022-07-29T10:42:11;19.50;99.90
52509;DHT22;38420;53.150;6.370;2022-07-29T10:44:39;19.50;99.90
52509;DHT22;38420;53.150;6.370;2022-07-29T10:47:05;19.50;99.90
52509;DHT22;38420;53.150;6.370;2022-07-29T10:49:31;19.50;99.90
52509;DHT22;38420;53.150;6.370;2022-07-29T10:52:06;19.60;99.90
52509;DHT22;38420;53.150;6.370;2022-07-29T10:54:45;19.60;99.90
52509;DHT22;38420;53.150;6.370;2022-07-29T11:07:23;20.20;99.90
52509;DHT22;38420;53.150;6.370;2022-07-29T11:15:02;20.40;99.90
52509;DHT22;38420;53.150;6.370;2022-07-29T11:17:28;20.40;99.90
52509;DHT22;38420;53.150;6.370;2022-07-29T11:22:38;20.40;99.90
52509;DHT22;38420;53.150;6.370;2022-07-29T11:25:16;20.40;99.90
52509;DHT22;38420;53.150;6.370;2022-07-29T11:27:44;20.40;99.90
52509;DHT22;38420;53.150;6.370;2022-07-29T11:30:10;20.40;99.90
52509;DHT22;38420;53.150;6.370;2022-07-29T11:32:38;20.50;99.90
52509;DHT22;38420;53.150;6.370;2022-07-29T11:35:11;20.50;99.90
52509;DHT22;38420;53.150;6.370;2022-07-29T11:37:37;20.50;99.90
52509;DHT22;38420;53.150;6.370;2022-07-29T11:45:02;20.50;99.90
52509;DHT22;38420;53.150;6.370;2022-07-29T11:47:32;20.40;99.90
52509;DHT22;38420;53.150;6.370;2022-07-29T11:49:59;20.50;99.90
52509;DHT22;38420;53.150;6.370;2022-07-29T11:52:41;20.50;99.90
52509;DHT22;38420;53.150;6.370;2022-07-29T11:55:18;20.60;99.90
52509;DHT22;38420;53.150;6.370;2022-07-29T11:58:05;20.70;99.90
52509;DHT22;38420;53.150;6.370;2022-07-29T12:00:32;20.70;99.90
52509;DHT22;38420;53.150;6.370;2022-07-29T12:02:58;20.80;99.90
52509;DHT22;38420;53.150;6.370;2022-07-29T12:05:35;20.90;99.90
52509;DHT22;38420;53.150;6.370;2022-07-29T12:10:55;21.10;99.90
52509;DHT22;38420;53.150;6.370;2022-07-29T12:13:21;21.00;99.90
52509;DHT22;38420;53.150;6.370;2022-07-29T12:15:54;21.10;99.90
52509;DHT22;38420;53.150;6.370;2022-07-29T12:18:20;21.20;99.90
52509;DHT22;38420;53.150;6.370;2022-07-29T12:20:48;21.30;99.90
52509;DHT22;38420;53.150;6.370;2022-07-29T12:23:21;21.40;99.90
52509;DHT22;38420;53.150;6.370;2022-07-29T12:25:46;21.60;99.90
52509;DHT22;38420;53.150;6.370;2022-07-29T12:28:13;21.70;99.90
52509;DHT22;38420;53.150;6.370;2022-07-29T12:30:45;21.90;99.90
52509;DHT22;38420;53.150;6.370;2022-07-29T12:33:16;22.10;99.90
52509;DHT22;38420;53.150;6.370;2022-07-29T12:35:42;22.30;99.90
52509;DHT22;38420;53.150;6.370;2022-07-29T12:38:10;22.50;99.90
52509;DHT22;38420;53.150;6.370;2022-07-29T12:40:36;22.50;99.90
52509;DHT22;38420;53.150;6.370;2022-07-29T12:43:12;22.60;99.90
52509;DHT22;38420;53.150;6.370;2022-07-29T12:45:38;22.60;99.90
52509;DHT22;38420;53.150;6.370;2022-07-29T12:48:04;22.70;99.90
52509;DHT22;38420;53.150;6.370;2022-07-29T12:50:31;22.80;99.90
52509;DHT22;38420;53.150;6.370;2022-07-29T12:53:12;22.80;99.90
52509;DHT22;38420;53.150;6.370;2022-07-29T12:55:42;22.80;99.90
52509;DHT22;38420;53.150;6.370;2022-07-29T12:58:08;22.90;99.90
52509;DHT22;38420;53.150;6.370;2022-07-29T13:00:34;23.10;99.90
52509;DHT22;38420;53.150;6.370;2022-07-29T13:03:00;23.10;99.90
52509;DHT22;38420;53.150;6.370;2022-07-29T13:05:41;23.10;99.90
52509;DHT22;38420;53.150;6.370;2022-07-29T13:08:14;23.20;99.90
52509;DHT22;38420;53.150;6.370;2022-07-29T13:10:40;23.30;99.90
52509;DHT22;38420;53.150;6.370;2022-07-29T13:15:32;23.30;99.90
52509;DHT22;38420;53.150;6.370;2022-07-29T13:17:58;23.30;99.90
52509;DHT22;38420;53.150;6.370;2022-07-29T13:20:24;23.40;99.90
52509;DHT22;38420;53.150;6.370;2022-07-29T13:22:50;23.40;99.90
52509;DHT22;38420;53.150;6.370;2022-07-29T13:25:22;23.40;99.90
52509;DHT22;38420;53.150;6.370;2022-07-29T13:27:48;23.50;99.90
52509;DHT22;38420;53.150;6.370;2022-07-29T13:30:14;23.50;99.90
52509;DHT22;38420;53.150;6.370;2022-07-29T13:32:39;23.60;99.90
52509;DHT22;38420;53.150;6.370;2022-07-29T13:35:06;23.70;99.90
52509;DHT22;38420;53.150;6.370;2022-07-29T13:37:32;23.70;99.90
52509;DHT22;38420;53.150;6.370;2022-07-29T13:39:59;23.80;99.90
52509;DHT22;38420;53.150;6.370;2022-07-29T13:42:25;23.90;99.90
52509;DHT22;38420;53.150;6.370;2022-07-29T13:44:51;24.00;99.90
52509;DHT22;38420;53.150;6.370;2022-07-29T13:47:17;24.00;99.90
52509;DHT22;38420;53.150;6.370;2022-07-29T13:49:43;24.00;99.90
52509;DHT22;38420;53.150;6.370;2022-07-29T13:52:08;24.10;99.90
52509;DHT22;38420;53.150;6.370;2022-07-29T13:54:34;24.10;99.90
52509;DHT22;38420;53.150;6.370;2022-07-29T13:57:03;24.10;99.90
52509;DHT22;38420;53.150;6.370;2022-07-29T13:59:28;24.10;99.90
52509;DHT22;38420;53.150;6.370;2022-07-29T14:01:54;24.10;99.90
52509;DHT22;38420;53.150;6.370;2022-07-29T14:04:19;24.20;99.90
52509;DHT22;38420;53.150;6.370;2022-07-29T14:06:45;24.20;99.90
52509;DHT22;38420;53.150;6.370;2022-07-29T14:09:10;24.20;99.90
52509;DHT22;38420;53.150;6.370;2022-07-29T14:11:36;24.20;99.90
52509;DHT22;38420;53.150;6.370;2022-07-29T14:14:03;24.10;99.90
52509;DHT22;38420;53.150;6.370;2022-07-29T14:16:29;24.20;99.90
52509;DHT22;38420;53.150;6.370;2022-07-29T14:18:55;24.30;99.90
52509;DHT22;38420;53.150;6.370;2022-07-29T14:21:20;24.40;99.90
52509;DHT22;38420;53.150;6.370;2022-07-29T14:23:46;24.40;99.90
52509;DHT22;38420;53.150;6.370;2022-07-29T14:26:11;24.30;99.90
52509;DHT22;38420;53.150;6.370;2022-07-29T14:28:37;24.30;99.90
52509;DHT22;38420;53.150;6.370;2022-07-29T14:31:02;24.30;99.90
52509;DHT22;38420;53.150;6.370;2022-07-29T14:33:28;24.20;99.90
52509;DHT22;38420;53.150;6.370;2022-07-29T14:35:53;24.20;99.90
52509;DHT22;38420;53.150;6.370;2022-07-29T14:38:19;24.10;99.90
52509;DHT22;38420;53.150;6.370;2022-07-29T14:40:44;24.30;99.90
52509;DHT22;38420;53.150;6.370;2022-07-29T14:43:12;24.50;99.90
52509;DHT22;38420;53.150;6.370;2022-07-29T14:45:37;24.60;99.30
52509;DHT22;38420;53.150;6.370;2022-07-29T14:48:03;24.80;99.70
52509;DHT22;38420;53.150;6.370;2022-07-29T14:50:28;24.80;99.30
52509;DHT22;38420;53.150;6.370;2022-07-29T14:52:54;24.90;99.70
52509;DHT22;38420;53.150;6.370;2022-07-29T14:55:20;24.90;99.70
52509;DHT22;38420;53.150;6.370;2022-07-29T14:57:45;25.00;99.50
52509;DHT22;38420;53.150;6.370;2022-07-29T15:00:11;25.00;98.90
52509;DHT22;38420;53.150;6.370;2022-07-29T15:02:36;25.10;99.20
52509;DHT22;38420;53.150;6.370;2022-07-29T15:05:02;25.20;99.00
52509;DHT22;38420;53.150;6.370;2022-07-29T15:07:28;25.30;99.20
52509;DHT22;38420;53.150;6.370;2022-07-29T15:09:54;25.40;99.20
52509;DHT22;38420;53.150;6.370;2022-07-29T15:12:19;25.40;98.20
52509;DHT22;38420;53.150;6.370;2022-07-29T15:14:45;25.50;97.70
52509;DHT22;38420;53.150;6.370;2022-07-29T15:17:10;25.40;98.00
52509;DHT22;38420;53.150;6.370;2022-07-29T15:19:36;25.30;97.60
52509;DHT22;38420;53.150;6.370;2022-07-29T15:22:01;25.30;97.00
52509;DHT22;38420;53.150;6.370;2022-07-29T15:24:27;25.30;97.10
52509;DHT22;38420;53.150;6.370;2022-07-29T15:26:52;25.30;97.20
52509;DHT22;38420;53.150;6.370;2022-07-29T15:29:18;25.20;95.90
52509;DHT22;38420;53.150;6.370;2022-07-29T15:31:44;25.20;95.60
52509;DHT22;38420;53.150;6.370;2022-07-29T15:34:09;25.20;96.10
52509;DHT22;38420;53.150;6.370;2022-07-29T15:36:35;25.10;95.60
52509;DHT22;38420;53.150;6.370;2022-07-29T15:39:00;25.00;96.10
52509;DHT22;38420;53.150;6.370;2022-07-29T15:41:26;25.00;96.10
52509;DHT22;38420;53.150;6.370;2022-07-29T15:43:52;24.90;97.20
52509;DHT22;38420;53.150;6.370;2022-07-29T15:46:18;24.80;96.60
52509;DHT22;38420;53.150;6.370;2022-07-29T15:49:03;24.90;97.30
52509;DHT22;38420;53.150;6.370;2022-07-29T15:51:28;24.90;97.50
52509;DHT22;38420;53.150;6.370;2022-07-29T15:53:54;24.90;97.00
52509;DHT22;38420;53.150;6.370;2022-07-29T15:56:20;24.80;96.80
52509;DHT22;38420;53.150;6.370;2022-07-29T15:58:48;24.80;97.20
52509;DHT22;38420;53.150;6.370;2022-07-29T16:01:14;24.60;97.50
52509;DHT22;38420;53.150;6.370;2022-07-29T16:03:42;24.60;97.00
52509;DHT22;38420;53.150;6.370;2022-07-29T16:06:08;24.50;97.20
52509;DHT22;38420;53.150;6.370;2022-07-29T16:08:33;24.40;98.50
52509;DHT22;38420;53.150;6.370;2022-07-29T16:10:59;24.40;99.30
52509;DHT22;38420;53.150;6.370;2022-07-29T16:13:24;24.30;98.20